createdAt,value
2022-10-08T00:01:07.642Z,19.10
2022-10-08T00:03:38.970Z,21.90
2022-10-08T00:06:16.499Z,18.92
2022-10-08T00:08:47.763Z,19.45
2022-10-08T00:11:17.899Z,17.17
2022-10-08T00:13:48.099Z,15.82
2022-10-08T00:16:30.261Z,20.80
2022-10-08T00:19:03.926Z,16.80
2022-10-08T00:21:38.699Z,16.60
2022-10-08T00:24:07.525Z,19.80
2022-10-08T00:26:39.774Z,15.57
2022-10-08T00:29:07.994Z,17.80
2022-10-08T00:31:38.452Z,16.35
2022-10-08T00:34:10.240Z,17.20
2022-10-08T00:36:38.855Z,16.60
2022-10-08T00:39:07.302Z,17.77
2022-10-08T00:41:38.684Z,19.15
2022-10-08T00:44:43.152Z,17.80
2022-10-08T00:47:46.341Z,16.35
2022-10-08T00:50:24.059Z,16.50
2022-10-08T00:53:06.025Z,17.90
2022-10-08T00:55:33.875Z,17.77
2022-10-08T00:58:09.862Z,16.52
2022-10-08T01:00:36.601Z,19.25
2022-10-08T01:03:03.895Z,18.85
2022-10-08T01:05:33.639Z,18.10
2022-10-08T01:08:16.094Z,18.45
2022-10-08T01:11:01.976Z,18.55
2022-10-08T01:13:49.246Z,20.27
2022-10-08T01:16:51.473Z,16.70
2022-10-08T01:19:45.636Z,15.57
2022-10-08T01:22:35.973Z,14.20
2022-10-08T01:25:34.551Z,19.35
2022-10-08T01:28:12.570Z,17.75
2022-10-08T01:30:48.740Z,19.42
2022-10-08T01:33:22.983Z,17.13
2022-10-08T01:35:54.544Z,18.55
2022-10-08T01:38:23.912Z,17.70
2022-10-08T01:40:53.048Z,18.45
2022-10-08T01:43:23.753Z,14.90
2022-10-08T01:45:57.218Z,17.95
2022-10-08T01:48:29.659Z,18.95
2022-10-08T01:51:04.953Z,19.00
2022-10-08T01:53:38.028Z,21.60
2022-10-08T01:56:07.803Z,18.88
2022-10-08T01:59:07.714Z,17.35
2022-10-08T02:02:13.206Z,18.42
2022-10-08T02:07:16.468Z,18.38
2022-10-08T02:09:45.932Z,13.65
2022-10-08T02:12:14.345Z,15.73
2022-10-08T02:14:46.565Z,17.50
2022-10-08T02:17:15.971Z,21.38
2022-10-08T02:20:05.601Z,13.70
2022-10-08T02:22:45.095Z,16.15
2022-10-08T02:25:21.920Z,21.05
2022-10-08T02:28:06.732Z,19.42
2022-10-08T02:33:28.681Z,17.80
2022-10-08T02:35:59.843Z,19.70
2022-10-08T02:38:40.699Z,16.38
2022-10-08T02:41:10.643Z,15.65
2022-10-08T02:43:42.413Z,17.00
2022-10-08T02:46:15.781Z,14.48
2022-10-08T02:48:46.850Z,15.15
2022-10-08T02:51:18.586Z,18.85
2022-10-08T02:53:47.696Z,15.13
2022-10-08T02:56:32.993Z,14.95
2022-10-08T02:59:00.205Z,20.05
2022-10-08T03:01:45.638Z,16.63
2022-10-08T03:04:23.945Z,19.50
2022-10-08T03:06:52.968Z,18.30
2022-10-08T03:09:21.994Z,16.35
2022-10-08T03:11:49.579Z,18.40
2022-10-08T03:14:19.603Z,17.63
2022-10-08T03:16:48.039Z,17.33
2022-10-08T03:19:17.621Z,17.60
2022-10-08T03:21:47.194Z,19.92
2022-10-08T03:24:15.025Z,15.75
2022-10-08T03:26:42.347Z,17.60
2022-10-08T03:29:10.069Z,21.67
2022-10-08T03:31:43.892Z,22.95
2022-10-08T03:34:10.624Z,20.10
2022-10-08T03:36:37.288Z,21.45
2022-10-08T03:39:04.307Z,19.08
2022-10-08T03:41:31.586Z,20.92
2022-10-08T03:43:59.537Z,18.67
2022-10-08T03:46:26.186Z,22.65
2022-10-08T03:48:52.873Z,20.65
2022-10-08T03:51:23.740Z,18.13
2022-10-08T03:53:50.506Z,23.55
2022-10-08T03:56:20.640Z,18.77
2022-10-08T03:58:57.891Z,21.08
2022-10-08T04:01:25.713Z,19.08
2022-10-08T04:03:52.718Z,25.40
2022-10-08T04:06:19.677Z,21.73
2022-10-08T04:08:46.612Z,21.90
2022-10-08T04:11:16.366Z,18.75
2022-10-08T04:13:44.066Z,18.02
2022-10-08T04:16:17.327Z,21.55
2022-10-08T04:18:44.843Z,21.27
2022-10-08T04:21:14.201Z,21.38
2022-10-08T04:23:42.354Z,20.75
2022-10-08T04:26:10.653Z,19.20
2022-10-08T04:28:39.285Z,20.83
2022-10-08T04:31:17.014Z,19.40
2022-10-08T04:33:45.030Z,17.85
2022-10-08T04:36:23.386Z,18.00
2022-10-08T04:38:50.824Z,18.27
2022-10-08T04:41:20.767Z,17.17
2022-10-08T04:43:47.689Z,18.40
2022-10-08T04:46:17.324Z,19.35
2022-10-08T04:48:49.312Z,20.75
2022-10-08T04:51:17.244Z,19.80
2022-10-08T04:53:44.443Z,20.48
2022-10-08T04:56:25.977Z,21.65
2022-10-08T04:58:55.196Z,27.10
2022-10-08T05:01:23.076Z,28.77
2022-10-08T05:03:51.799Z,25.92
2022-10-08T05:06:22.032Z,27.00
2022-10-08T05:08:49.303Z,23.30
2022-10-08T05:11:17.004Z,26.92
2022-10-08T05:13:48.672Z,25.42
2022-10-08T05:16:17.222Z,26.10
2022-10-08T05:18:45.023Z,26.13
2022-10-08T05:21:14.558Z,25.23
2022-10-08T05:23:45.001Z,28.02
2022-10-08T05:26:14.507Z,28.52
2022-10-08T05:28:41.595Z,28.40
2022-10-08T05:31:08.487Z,29.13
2022-10-08T05:33:36.335Z,24.40
2022-10-08T05:36:05.323Z,29.60
2022-10-08T05:38:35.194Z,29.65
2022-10-08T05:41:14.453Z,25.55
2022-10-08T05:43:41.497Z,28.30
2022-10-08T05:46:08.300Z,28.80
2022-10-08T05:48:35.672Z,25.80
2022-10-08T05:51:11.117Z,22.95
2022-10-08T05:53:39.972Z,30.23
2022-10-08T05:56:09.148Z,31.45
2022-10-08T05:58:39.393Z,27.60
2022-10-08T06:01:12.871Z,24.50
2022-10-08T06:03:39.695Z,24.90
2022-10-08T06:06:09.400Z,26.75
2022-10-08T06:08:37.125Z,23.63
2022-10-08T06:11:05.838Z,21.52
2022-10-08T06:13:32.732Z,21.00
2022-10-08T06:16:01.297Z,25.00
2022-10-08T06:18:31.313Z,21.70
2022-10-08T06:21:01.497Z,22.80
2022-10-08T06:23:28.146Z,23.50
2022-10-08T06:25:54.987Z,22.92
2022-10-08T06:28:21.710Z,22.38
2022-10-08T06:30:48.388Z,22.48
2022-10-08T06:33:16.880Z,20.20
2022-10-08T06:35:43.671Z,20.95
2022-10-08T06:38:10.337Z,22.17
2022-10-08T06:40:39.352Z,21.75
2022-10-08T06:43:07.835Z,22.85
2022-10-08T06:45:39.351Z,26.33
2022-10-08T06:48:06.242Z,23.45
2022-10-08T06:50:34.179Z,25.75
2022-10-08T06:53:01.642Z,26.75
2022-10-08T06:55:28.303Z,27.55
2022-10-08T06:57:55.036Z,26.80
2022-10-08T07:00:25.923Z,23.13
2022-10-08T07:02:53.123Z,22.67
2022-10-08T07:05:20.290Z,28.73
2022-10-08T07:07:46.949Z,34.13
2022-10-08T07:10:16.602Z,33.97
2022-10-08T07:12:45.642Z,36.13
2022-10-08T07:15:12.691Z,29.05
2022-10-08T07:17:39.561Z,34.08
2022-10-08T07:20:06.995Z,30.25
2022-10-08T07:22:33.691Z,26.35
2022-10-08T07:25:01.529Z,26.88
2022-10-08T07:27:28.309Z,31.00
2022-10-08T07:29:54.995Z,32.33
2022-10-08T07:32:21.754Z,27.58
2022-10-08T07:34:48.432Z,30.55
2022-10-08T07:37:15.107Z,27.38
2022-10-08T07:39:41.893Z,26.20
2022-10-08T07:42:08.614Z,30.45
2022-10-08T07:44:35.292Z,29.73
2022-10-08T07:47:02.001Z,28.23
2022-10-08T07:49:28.768Z,29.00
2022-10-08T07:51:55.487Z,29.08
2022-10-08T07:54:22.653Z,25.50
2022-10-08T07:56:50.036Z,25.38
2022-10-08T07:59:16.781Z,26.58
2022-10-08T08:01:44.009Z,26.02
2022-10-08T08:04:11.605Z,25.45
2022-10-08T08:06:41.967Z,28.20
2022-10-08T08:09:09.697Z,28.10
2022-10-08T08:11:37.262Z,28.38
2022-10-08T08:14:04.090Z,26.58
2022-10-08T08:16:30.909Z,31.92
2022-10-08T08:18:59.965Z,29.88
2022-10-08T08:21:30.268Z,29.38
2022-10-08T08:23:58.794Z,30.05
2022-10-08T08:26:29.021Z,31.92
2022-10-08T08:28:58.658Z,28.52
2022-10-08T08:31:28.805Z,39.05
2022-10-08T08:33:58.665Z,38.63
2022-10-08T08:36:27.739Z,27.98
2022-10-08T08:38:54.668Z,29.40
2022-10-08T08:42:00.233Z,24.73
2022-10-08T08:47:39.760Z,23.83
2022-10-08T08:50:08.603Z,27.80
2022-10-08T08:52:40.372Z,23.17
2022-10-08T08:55:15.683Z,24.35
2022-10-08T08:58:00.180Z,24.13
2022-10-08T09:00:36.083Z,21.73
2022-10-08T09:03:10.980Z,20.75
2022-10-08T09:05:42.941Z,21.30
2022-10-08T09:08:29.655Z,20.45
2022-10-08T09:11:05.503Z,22.25
2022-10-08T09:13:56.565Z,21.60
2022-10-08T09:16:25.325Z,20.75
2022-10-08T09:18:52.282Z,20.02
2022-10-08T09:21:20.468Z,24.85
2022-10-08T09:23:47.941Z,30.58
2022-10-08T09:26:19.377Z,23.67
2022-10-08T09:28:47.686Z,22.05
2022-10-08T09:31:26.830Z,21.42
2022-10-08T09:34:04.692Z,24.42
2022-10-08T09:36:38.263Z,23.88
2022-10-08T09:39:15.310Z,24.67
2022-10-08T09:41:44.134Z,21.83
2022-10-08T09:44:20.285Z,28.88
2022-10-08T09:46:48.051Z,24.17
2022-10-08T09:49:35.089Z,28.02
2022-10-08T09:52:25.962Z,26.48
2022-10-08T09:55:02.738Z,23.23
2022-10-08T09:57:30.656Z,28.95
2022-10-08T10:00:00.005Z,32.33
2022-10-08T10:02:31.381Z,28.77
2022-10-08T10:05:00.497Z,25.83
2022-10-08T10:07:44.876Z,27.83
2022-10-08T10:10:28.759Z,25.60
2022-10-08T10:13:10.180Z,25.60
2022-10-08T10:16:01.868Z,30.17
2022-10-08T10:18:43.049Z,23.27
2022-10-08T10:21:17.708Z,22.17
2022-10-08T10:23:54.761Z,18.55
2022-10-08T10:26:29.434Z,23.92
2022-10-08T10:28:59.384Z,17.17
2022-10-08T10:31:54.729Z,15.80
2022-10-08T10:34:27.609Z,15.20
2022-10-08T10:37:00.951Z,17.20
2022-10-08T10:39:36.630Z,13.20
2022-10-08T10:42:21.003Z,13.73
2022-10-08T10:44:56.565Z,12.73
2022-10-08T10:47:30.927Z,12.75
2022-10-08T10:50:01.157Z,14.75
2022-10-08T10:53:02.225Z,11.02
2022-10-08T10:55:38.991Z,12.90
2022-10-08T10:58:30.994Z,18.05
2022-10-08T11:01:03.756Z,14.75
2022-10-08T11:03:49.880Z,10.38
2022-10-08T11:06:31.724Z,15.30
2022-10-08T11:09:39.742Z,13.40
2022-10-08T11:12:24.852Z,11.38
2022-10-08T11:15:15.591Z,12.25
2022-10-08T11:17:58.930Z,11.00
2022-10-08T11:20:37.940Z,12.40
2022-10-08T11:23:17.106Z,14.68
2022-10-08T11:26:20.782Z,16.05
2022-10-08T11:29:09.739Z,16.67
2022-10-08T11:31:46.553Z,11.68
2022-10-08T11:34:33.952Z,16.33
2022-10-08T11:37:15.665Z,15.15
2022-10-08T11:40:05.538Z,13.57
2022-10-08T11:42:45.033Z,14.60
2022-10-08T11:45:28.799Z,15.73
2022-10-08T11:47:57.977Z,11.90
2022-10-08T11:50:37.360Z,14.40
2022-10-08T11:53:09.714Z,13.18
2022-10-08T11:55:37.677Z,17.40
2022-10-08T11:58:15.601Z,17.35
2022-10-08T12:00:44.916Z,16.52
2022-10-08T12:03:23.256Z,18.85
2022-10-08T12:05:53.241Z,16.52
2022-10-08T12:08:50.529Z,15.48
2022-10-08T12:11:32.258Z,18.50
2022-10-08T12:14:19.901Z,16.25
2022-10-08T12:16:55.546Z,18.85
2022-10-08T12:19:34.933Z,16.48
2022-10-08T12:22:25.404Z,15.10
2022-10-08T12:24:55.083Z,22.92
2022-10-08T12:27:26.913Z,19.45
2022-10-08T12:29:55.791Z,15.77
2022-10-08T12:32:31.063Z,24.88
2022-10-08T12:34:59.317Z,15.98
2022-10-08T12:37:43.374Z,16.00
2022-10-08T12:40:50.571Z,12.80
2022-10-08T12:43:51.132Z,12.38
2022-10-08T12:46:23.732Z,15.85
2022-10-08T12:49:15.819Z,16.23
2022-10-08T12:52:14.312Z,21.00
2022-10-08T12:54:58.696Z,24.63
2022-10-08T12:57:33.808Z,21.40
2022-10-08T13:00:24.831Z,23.27
2022-10-08T13:03:14.974Z,21.30
2022-10-08T13:05:46.054Z,18.90
2022-10-08T13:08:35.968Z,17.67
2022-10-08T13:11:05.970Z,20.90
2022-10-08T13:13:41.053Z,15.68
2022-10-08T13:16:11.134Z,15.90
2022-10-08T13:18:41.736Z,19.13
2022-10-08T13:21:34.765Z,15.95
2022-10-08T13:24:11.405Z,13.88
2022-10-08T13:26:50.046Z,12.60
2022-10-08T13:29:22.954Z,10.25
2022-10-08T13:32:06.905Z,12.77
2022-10-08T13:34:39.562Z,10.23
2022-10-08T13:37:29.628Z,10.05
2022-10-08T13:40:12.950Z,13.60
2022-10-08T13:42:41.681Z,10.85
2022-10-08T13:45:19.623Z,14.40
2022-10-08T13:47:46.714Z,9.02
2022-10-08T13:50:14.116Z,10.13
2022-10-08T13:52:47.295Z,11.30
2022-10-08T13:55:30.401Z,7.82
2022-10-08T13:58:02.625Z,8.77
2022-10-08T14:00:32.006Z,6.88
2022-10-08T14:02:59.682Z,7.22
2022-10-08T14:05:28.747Z,6.43
2022-10-08T14:08:00.528Z,7.60
2022-10-08T14:10:27.444Z,11.77
2022-10-08T14:12:54.235Z,8.52
2022-10-08T14:15:21.291Z,7.38
2022-10-08T14:17:50.576Z,11.90
2022-10-08T14:20:17.577Z,11.88
2022-10-08T14:22:44.407Z,8.50
2022-10-08T14:25:15.976Z,7.25
2022-10-08T14:27:43.024Z,9.50
2022-10-08T14:30:11.763Z,10.93
2022-10-08T14:32:38.504Z,7.10
2022-10-08T14:35:06.840Z,11.05
2022-10-08T14:37:34.675Z,7.05
2022-10-08T14:40:01.793Z,9.32
2022-10-08T14:42:28.454Z,5.97
2022-10-08T14:44:55.156Z,8.95
2022-10-08T14:47:22.318Z,6.93
2022-10-08T14:49:49.031Z,8.25
2022-10-08T14:52:15.777Z,5.63
2022-10-08T14:54:42.733Z,5.68
2022-10-08T14:57:09.476Z,11.38
2022-10-08T14:59:40.084Z,8.25
2022-10-08T15:02:09.522Z,9.45
2022-10-08T15:04:36.252Z,6.20
2022-10-08T15:07:03.211Z,6.25
2022-10-08T15:09:31.373Z,8.85
2022-10-08T15:11:58.398Z,7.13
2022-10-08T15:14:25.304Z,5.72
2022-10-08T15:16:52.034Z,7.53
2022-10-08T15:19:23.461Z,6.68
2022-10-08T15:21:50.885Z,6.35
2022-10-08T15:24:17.731Z,10.85
2022-10-08T15:26:44.386Z,6.13
2022-10-08T15:29:11.809Z,5.53
2022-10-08T15:31:38.770Z,9.48
2022-10-08T15:34:05.829Z,5.75
2022-10-08T15:36:37.835Z,8.05
2022-10-08T15:39:12.058Z,10.30
2022-10-08T15:41:42.135Z,5.85
2022-10-08T15:44:25.467Z,9.02
2022-10-08T15:47:05.931Z,5.40
2022-10-08T15:49:41.905Z,6.78
2022-10-08T15:52:11.769Z,6.53
2022-10-08T15:54:39.385Z,6.35
2022-10-08T15:57:07.467Z,11.70
2022-10-08T15:59:34.224Z,9.35
2022-10-08T16:02:01.239Z,11.95
2022-10-08T16:04:28.312Z,9.40
2022-10-08T16:06:55.651Z,8.18
2022-10-08T16:09:22.897Z,8.77
2022-10-08T16:11:50.729Z,6.78
2022-10-08T16:14:18.631Z,7.35
2022-10-08T16:16:46.025Z,4.93
2022-10-08T16:19:17.934Z,8.38
2022-10-08T16:21:46.162Z,8.73
2022-10-08T16:24:13.618Z,10.73
2022-10-08T16:26:41.928Z,10.50
2022-10-08T16:29:12.855Z,6.07
2022-10-08T16:31:41.614Z,6.35
2022-10-08T16:34:13.022Z,7.63
2022-10-08T16:36:39.807Z,6.43
2022-10-08T16:39:08.215Z,7.43
2022-10-08T16:41:36.990Z,5.53
2022-10-08T16:44:11.805Z,9.45
2022-10-08T16:46:42.306Z,5.90
2022-10-08T16:49:35.078Z,5.78
2022-10-08T16:52:08.099Z,4.82
2022-10-08T16:54:34.886Z,6.40
2022-10-08T16:57:02.123Z,5.68
2022-10-08T16:59:30.066Z,5.82
2022-10-08T17:01:58.824Z,5.72
2022-10-08T17:04:27.678Z,5.80
2022-10-08T17:06:54.583Z,5.60
2022-10-08T17:09:21.245Z,8.95
2022-10-08T17:11:48.481Z,8.10
2022-10-08T17:14:15.173Z,4.57
2022-10-08T17:16:43.426Z,6.63
2022-10-08T17:19:10.887Z,7.22
2022-10-08T17:21:38.475Z,6.53
2022-10-08T17:24:05.816Z,9.13
2022-10-08T17:26:32.603Z,6.43
2022-10-08T17:29:04.546Z,6.85
2022-10-08T17:31:31.821Z,8.60
2022-10-08T17:33:59.743Z,5.40
2022-10-08T17:36:29.186Z,4.40
2022-10-08T17:38:59.516Z,5.55
2022-10-08T17:41:31.409Z,7.90
2022-10-08T17:44:00.970Z,8.38
2022-10-08T17:46:36.353Z,5.68
2022-10-08T17:49:03.739Z,8.55
2022-10-08T17:51:30.874Z,6.47
2022-10-08T17:54:00.457Z,4.47
2022-10-08T17:56:28.041Z,5.55
2022-10-08T17:58:54.826Z,5.40
2022-10-08T18:01:27.381Z,5.63
2022-10-08T18:04:02.756Z,7.22
2022-10-08T18:06:32.913Z,3.70
2022-10-08T18:09:05.324Z,7.72
2022-10-08T18:11:34.221Z,4.10
2022-10-08T18:14:02.644Z,4.18
2022-10-08T18:16:29.353Z,3.85
2022-10-08T18:18:56.213Z,5.82
2022-10-08T18:21:23.113Z,7.22
2022-10-08T18:23:50.154Z,7.22
2022-10-08T18:26:33.937Z,9.35
2022-10-08T18:29:09.882Z,7.35
2022-10-08T18:31:38.431Z,6.05
2022-10-08T18:34:08.659Z,4.68
2022-10-08T18:36:37.866Z,4.68
2022-10-08T18:39:16.791Z,7.05
2022-10-08T18:41:46.401Z,7.45
2022-10-08T18:44:16.377Z,5.95
2022-10-08T18:46:46.183Z,5.13
2022-10-08T18:49:15.585Z,7.03
2022-10-08T18:51:42.700Z,9.60
2022-10-08T18:54:10.539Z,7.03
2022-10-08T18:56:39.415Z,6.68
2022-10-08T18:59:08.485Z,4.97
2022-10-08T19:01:38.326Z,11.65
2022-10-08T19:04:07.437Z,6.35
2022-10-08T19:06:37.551Z,6.07
2022-10-08T19:09:05.274Z,8.23
2022-10-08T19:11:37.685Z,6.97
2022-10-08T19:14:10.159Z,6.57
2022-10-08T19:16:38.100Z,6.93
2022-10-08T19:19:12.801Z,4.53
2022-10-08T19:21:39.469Z,8.05
2022-10-08T19:24:08.126Z,6.35
2022-10-08T19:26:34.918Z,7.22
2022-10-08T19:29:01.625Z,6.72
2022-10-08T19:31:31.187Z,9.68
2022-10-08T19:34:04.785Z,5.82
2022-10-08T19:36:34.625Z,5.77
2022-10-08T19:39:04.884Z,5.32
2022-10-08T19:41:32.335Z,6.75
2022-10-08T19:44:00.026Z,6.82
2022-10-08T19:46:27.489Z,5.50
2022-10-08T19:48:56.911Z,9.88
2022-10-08T19:51:24.612Z,7.60
2022-10-08T19:53:51.548Z,6.97
2022-10-08T19:56:19.700Z,7.82
2022-10-08T19:58:48.821Z,12.38
2022-10-08T20:01:24.580Z,6.05
2022-10-08T20:03:56.015Z,8.20
2022-10-08T20:06:25.228Z,6.32
2022-10-08T20:08:57.272Z,9.30
2022-10-08T20:11:24.535Z,6.63
2022-10-08T20:13:52.250Z,6.32
2022-10-08T20:16:21.843Z,7.60
2022-10-08T20:18:51.997Z,6.95
2022-10-08T20:21:19.873Z,4.28
2022-10-08T20:23:47.278Z,5.45
2022-10-08T20:26:21.251Z,9.00
2022-10-08T20:28:50.672Z,4.60
2022-10-08T20:31:20.526Z,9.40
2022-10-08T20:33:48.252Z,5.30
2022-10-08T20:36:17.031Z,8.73
2022-10-08T20:38:44.016Z,7.07
2022-10-08T20:41:11.128Z,7.18
2022-10-08T20:43:39.109Z,6.38
2022-10-08T20:46:11.636Z,7.35
2022-10-08T20:48:42.160Z,10.93
2022-10-08T20:51:17.791Z,8.35
2022-10-08T20:53:53.541Z,6.35
2022-10-08T20:56:21.911Z,9.18
2022-10-08T20:58:49.085Z,11.45
2022-10-08T21:01:25.246Z,7.13
2022-10-08T21:03:52.900Z,7.78
2022-10-08T21:06:22.570Z,7.32
2022-10-08T21:08:51.549Z,5.75
2022-10-08T21:11:20.865Z,7.03
2022-10-08T21:13:48.271Z,11.27
2022-10-08T21:16:27.450Z,5.25
2022-10-08T21:18:56.443Z,7.05
2022-10-08T21:21:23.941Z,6.22
2022-10-08T21:23:50.852Z,6.25
2022-10-08T21:26:26.920Z,5.93
2022-10-08T21:28:56.655Z,7.07
2022-10-08T21:31:24.294Z,5.70
2022-10-08T21:33:52.805Z,4.25
2022-10-08T21:36:24.418Z,5.00
2022-10-08T21:38:51.200Z,5.43
2022-10-08T21:41:19.328Z,7.50
2022-10-08T21:43:50.998Z,5.50
2022-10-08T21:46:20.697Z,5.75
2022-10-08T21:48:48.571Z,6.05
2022-10-08T21:51:18.085Z,5.38
2022-10-08T21:53:46.924Z,6.32
2022-10-08T21:56:16.149Z,8.07
2022-10-08T21:58:45.505Z,6.63
2022-10-08T22:01:21.820Z,7.70
2022-10-08T22:03:48.988Z,7.78
2022-10-08T22:06:15.805Z,6.35
2022-10-08T22:08:42.512Z,9.38
2022-10-08T22:11:09.225Z,11.48
2022-10-08T22:13:35.918Z,13.18
2022-10-08T22:16:04.942Z,10.73
2022-10-08T22:18:33.266Z,12.30
2022-10-08T22:21:08.977Z,9.98
2022-10-08T22:23:36.130Z,10.10
2022-10-08T22:26:06.380Z,9.20
2022-10-08T22:28:33.757Z,10.45
2022-10-08T22:31:22.698Z,9.90
2022-10-08T22:33:49.823Z,9.85
2022-10-08T22:36:22.796Z,8.20
2022-10-08T22:38:50.148Z,10.15
2022-10-08T22:41:22.354Z,9.15
2022-10-08T22:43:49.763Z,14.50
2022-10-08T22:46:20.056Z,8.80
2022-10-08T22:48:47.528Z,9.07
2022-10-08T22:51:17.019Z,7.70
2022-10-08T22:53:44.348Z,9.98
2022-10-08T22:56:20.225Z,7.05
2022-10-08T22:58:48.010Z,7.68
2022-10-08T23:01:25.495Z,7.53
2022-10-08T23:03:53.357Z,9.95
2022-10-08T23:06:32.489Z,7.28
2022-10-08T23:09:07.516Z,6.47
2022-10-08T23:11:34.745Z,7.00
2022-10-08T23:14:02.267Z,7.80
2022-10-08T23:16:31.361Z,12.02
2022-10-08T23:19:00.667Z,10.25
2022-10-08T23:21:28.278Z,9.38
2022-10-08T23:23:55.757Z,8.18
2022-10-08T23:26:23.489Z,5.22
2022-10-08T23:28:52.573Z,7.97
2022-10-08T23:31:30.448Z,9.43
2022-10-08T23:33:58.024Z,9.95
2022-10-08T23:36:27.799Z,7.90
2022-10-08T23:38:56.564Z,9.20
2022-10-08T23:41:24.256Z,9.30
2022-10-08T23:43:52.484Z,9.48
2022-10-08T23:46:21.789Z,10.02
2022-10-08T23:48:49.372Z,7.85
2022-10-08T23:51:17.064Z,7.57
2022-10-08T23:53:44.803Z,11.60
2022-10-08T23:56:12.634Z,9.48
2022-10-08T23:58:39.637Z,6.97
